sensor_id;sensor_type;location;lat;lon;timestamp;P1;durP1;ratioP1;P2;durP2;ratioP2
54247;SDS011;40161;39.768;2.722;2022-08-01T00:00:28;6.55;;;3.00;;
54247;SDS011;40161;39.768;2.722;2022-08-01T00:02:53;4.78;;;2.97;;
54247;SDS011;40161;39.768;2.722;2022-08-01T00:05:19;5.53;;;2.88;;
54247;SDS011;40161;39.768;2.722;2022-08-01T00:07:44;6.85;;;2.90;;
54247;SDS011;40161;39.768;2.722;2022-08-01T00:10:11;4.55;;;2.95;;
54247;SDS011;40161;39.768;2.722;2022-08-01T00:12:38;4.38;;;2.83;;
54247;SDS011;40161;39.768;2.722;2022-08-01T00:15:05;5.22;;;2.97;;
54247;SDS011;40161;39.768;2.722;2022-08-01T00:17:32;6.65;;;3.45;;
54247;SDS011;40161;39.768;2.722;2022-08-01T00:19:58;4.32;;;2.88;;
54247;SDS011;40161;39.768;2.722;2022-08-01T00:22:23;4.43;;;3.05;;
54247;SDS011;40161;39.768;2.722;2022-08-01T00:24:49;6.15;;;3.35;;
54247;SDS011;40161;39.768;2.722;2022-08-01T00:27:15;4.38;;;2.90;;
54247;SDS011;40161;39.768;2.722;2022-08-01T00:29:40;4.45;;;2.63;;
54247;SDS011;40161;39.768;2.722;2022-08-01T00:32:06;6.10;;;3.13;;
54247;SDS011;40161;39.768;2.722;2022-08-01T00:34:31;5.10;;;2.80;;
54247;SDS011;40161;39.768;2.722;2022-08-01T00:36:57;5.57;;;3.10;;
54247;SDS011;40161;39.768;2.722;2022-08-01T00:39:23;4.35;;;2.63;;
54247;SDS011;40161;39.768;2.722;2022-08-01T00:41:48;6.05;;;3.22;;
54247;SDS011;40161;39.768;2.722;2022-08-01T00:44:14;6.20;;;3.13;;
54247;SDS011;40161;39.768;2.722;2022-08-01T00:46:39;5.03;;;3.30;;
54247;SDS011;40161;39.768;2.722;2022-08-01T00:49:06;5.72;;;3.15;;
54247;SDS011;40161;39.768;2.722;2022-08-01T00:51:31;5.43;;;2.88;;
54247;SDS011;40161;39.768;2.722;2022-08-01T00:53:58;4.88;;;3.00;;
54247;SDS011;40161;39.768;2.722;2022-08-01T00:56:25;3.83;;;2.75;;
54247;SDS011;40161;39.768;2.722;2022-08-01T00:58:52;4.97;;;3.00;;
54247;SDS011;40161;39.768;2.722;2022-08-01T01:01:17;4.50;;;2.95;;
54247;SDS011;40161;39.768;2.722;2022-08-01T01:03:46;5.05;;;3.05;;
54247;SDS011;40161;39.768;2.722;2022-08-01T01:06:22;5.15;;;3.30;;
54247;SDS011;40161;39.768;2.722;2022-08-01T01:08:55;4.78;;;3.17;;
54247;SDS011;40161;39.768;2.722;2022-08-01T01:11:35;5.35;;;2.85;;
54247;SDS011;40161;39.768;2.722;2022-08-01T01:14:09;4.18;;;2.95;;
54247;SDS011;40161;39.768;2.722;2022-08-01T01:16:41;6.45;;;3.30;;
54247;SDS011;40161;39.768;2.722;2022-08-01T01:19:11;5.18;;;3.20;;
54247;SDS011;40161;39.768;2.722;2022-08-01T01:27:06;4.35;;;3.15;;
54247;SDS011;40161;39.768;2.722;2022-08-01T01:29:51;5.55;;;3.25;;
54247;SDS011;40161;39.768;2.722;2022-08-01T01:32:29;7.18;;;4.05;;
54247;SDS011;40161;39.768;2.722;2022-08-01T01:34:59;5.30;;;3.85;;
54247;SDS011;40161;39.768;2.722;2022-08-01T01:37:30;5.45;;;3.15;;
54247;SDS011;40161;39.768;2.722;2022-08-01T01:39:58;5.45;;;3.00;;
54247;SDS011;40161;39.768;2.722;2022-08-01T01:42:26;6.57;;;3.38;;
54247;SDS011;40161;39.768;2.722;2022-08-01T01:44:53;6.43;;;3.60;;
54247;SDS011;40161;39.768;2.722;2022-08-01T01:47:19;5.20;;;3.17;;
54247;SDS011;40161;39.768;2.722;2022-08-01T01:49:47;6.00;;;3.40;;
54247;SDS011;40161;39.768;2.722;2022-08-01T01:52:15;6.40;;;3.30;;
54247;SDS011;40161;39.768;2.722;2022-08-01T01:54:44;4.82;;;2.92;;
54247;SDS011;40161;39.768;2.722;2022-08-01T01:57:12;5.25;;;3.17;;
54247;SDS011;40161;39.768;2.722;2022-08-01T01:59:40;5.05;;;3.40;;
54247;SDS011;40161;39.768;2.722;2022-08-01T02:02:07;6.78;;;3.40;;
54247;SDS011;40161;39.768;2.722;2022-08-01T02:04:35;4.90;;;2.90;;
54247;SDS011;40161;39.768;2.722;2022-08-01T02:07:03;5.28;;;3.35;;
54247;SDS011;40161;39.768;2.722;2022-08-01T02:09:30;5.50;;;3.28;;
54247;SDS011;40161;39.768;2.722;2022-08-01T02:11:59;5.38;;;3.15;;
54247;SDS011;40161;39.768;2.722;2022-08-01T02:14:26;4.43;;;3.08;;
54247;SDS011;40161;39.768;2.722;2022-08-01T02:16:53;4.85;;;3.03;;
54247;SDS011;40161;39.768;2.722;2022-08-01T02:19:22;5.60;;;3.35;;
54247;SDS011;40161;39.768;2.722;2022-08-01T02:21:57;6.03;;;3.28;;
54247;SDS011;40161;39.768;2.722;2022-08-01T02:27:14;5.40;;;3.70;;
54247;SDS011;40161;39.768;2.722;2022-08-01T02:29:53;5.32;;;2.92;;
54247;SDS011;40161;39.768;2.722;2022-08-01T02:32:24;5.65;;;3.47;;
54247;SDS011;40161;39.768;2.722;2022-08-01T02:34:55;5.25;;;3.30;;
54247;SDS011;40161;39.768;2.722;2022-08-01T02:37:22;5.43;;;2.90;;
54247;SDS011;40161;39.768;2.722;2022-08-01T02:39:52;5.03;;;3.30;;
54247;SDS011;40161;39.768;2.722;2022-08-01T02:42:19;5.93;;;3.47;;
54247;SDS011;40161;39.768;2.722;2022-08-01T02:44:47;5.82;;;3.40;;
54247;SDS011;40161;39.768;2.722;2022-08-01T02:47:14;6.85;;;3.45;;
54247;SDS011;40161;39.768;2.722;2022-08-01T02:49:42;5.38;;;3.30;;
54247;SDS011;40161;39.768;2.722;2022-08-01T02:52:12;5.97;;;3.47;;
54247;SDS011;40161;39.768;2.722;2022-08-01T02:54:39;4.97;;;3.25;;
54247;SDS011;40161;39.768;2.722;2022-08-01T02:57:08;4.63;;;3.35;;
54247;SDS011;40161;39.768;2.722;2022-08-01T02:59:35;4.78;;;3.03;;
54247;SDS011;40161;39.768;2.722;2022-08-01T03:02:03;4.32;;;3.08;;
54247;SDS011;40161;39.768;2.722;2022-08-01T03:04:30;4.80;;;3.03;;
54247;SDS011;40161;39.768;2.722;2022-08-01T03:06:58;5.88;;;3.30;;
54247;SDS011;40161;39.768;2.722;2022-08-01T03:09:27;5.45;;;3.25;;
54247;SDS011;40161;39.768;2.722;2022-08-01T03:11:55;7.15;;;3.65;;
54247;SDS011;40161;39.768;2.722;2022-08-01T03:14:26;4.70;;;2.97;;
54247;SDS011;40161;39.768;2.722;2022-08-01T03:16:55;5.03;;;3.38;;
54247;SDS011;40161;39.768;2.722;2022-08-01T03:19:24;4.60;;;3.13;;
54247;SDS011;40161;39.768;2.722;2022-08-01T03:21:52;4.97;;;3.47;;
54247;SDS011;40161;39.768;2.722;2022-08-01T03:24:19;5.03;;;3.40;;
54247;SDS011;40161;39.768;2.722;2022-08-01T03:26:47;7.22;;;3.40;;
54247;SDS011;40161;39.768;2.722;2022-08-01T03:29:17;4.28;;;2.75;;
54247;SDS011;40161;39.768;2.722;2022-08-01T03:31:47;5.35;;;3.60;;
54247;SDS011;40161;39.768;2.722;2022-08-01T03:34:14;5.18;;;3.40;;
54247;SDS011;40161;39.768;2.722;2022-08-01T03:36:48;6.00;;;3.78;;
54247;SDS011;40161;39.768;2.722;2022-08-01T03:39:17;5.53;;;3.58;;
54247;SDS011;40161;39.768;2.722;2022-08-01T03:41:50;5.20;;;3.30;;
54247;SDS011;40161;39.768;2.722;2022-08-01T03:44:20;5.15;;;3.50;;
54247;SDS011;40161;39.768;2.722;2022-08-01T03:46:56;5.53;;;3.47;;
54247;SDS011;40161;39.768;2.722;2022-08-01T03:49:28;5.65;;;3.40;;
54247;SDS011;40161;39.768;2.722;2022-08-01T03:51:55;5.10;;;3.45;;
54247;SDS011;40161;39.768;2.722;2022-08-01T03:54:24;5.68;;;3.40;;
54247;SDS011;40161;39.768;2.722;2022-08-01T03:56:53;4.85;;;3.47;;
54247;SDS011;40161;39.768;2.722;2022-08-01T03:59:19;5.18;;;3.30;;
54247;SDS011;40161;39.768;2.722;2022-08-01T04:01:46;4.68;;;3.30;;
54247;SDS011;40161;39.768;2.722;2022-08-01T04:04:13;5.72;;;3.45;;
54247;SDS011;40161;39.768;2.722;2022-08-01T04:06:39;5.03;;;3.28;;
54247;SDS011;40161;39.768;2.722;2022-08-01T04:09:09;5.93;;;3.28;;
54247;SDS011;40161;39.768;2.722;2022-08-01T04:11:35;5.10;;;3.72;;
54247;SDS011;40161;39.768;2.722;2022-08-01T04:14:01;4.53;;;3.20;;
54247;SDS011;40161;39.768;2.722;2022-08-01T04:16:26;5.28;;;3.13;;
54247;SDS011;40161;39.768;2.722;2022-08-01T04:18:52;6.32;;;3.38;;
54247;SDS011;40161;39.768;2.722;2022-08-01T04:21:18;6.05;;;2.85;;
54247;SDS011;40161;39.768;2.722;2022-08-01T04:23:47;6.22;;;3.72;;
54247;SDS011;40161;39.768;2.722;2022-08-01T04:26:14;5.47;;;3.67;;
54247;SDS011;40161;39.768;2.722;2022-08-01T04:28:42;5.03;;;3.03;;
54247;SDS011;40161;39.768;2.722;2022-08-01T04:31:09;5.18;;;3.45;;
54247;SDS011;40161;39.768;2.722;2022-08-01T04:33:37;5.20;;;3.40;;
54247;SDS011;40161;39.768;2.722;2022-08-01T04:36:05;5.53;;;3.53;;
54247;SDS011;40161;39.768;2.722;2022-08-01T04:38:32;5.00;;;3.20;;
54247;SDS011;40161;39.768;2.722;2022-08-01T04:41:01;5.18;;;3.30;;
54247;SDS011;40161;39.768;2.722;2022-08-01T04:43:28;5.60;;;3.60;;
54247;SDS011;40161;39.768;2.722;2022-08-01T04:45:54;5.72;;;3.30;;
54247;SDS011;40161;39.768;2.722;2022-08-01T04:48:21;5.85;;;3.42;;
54247;SDS011;40161;39.768;2.722;2022-08-01T04:50:49;5.35;;;3.28;;
54247;SDS011;40161;39.768;2.722;2022-08-01T04:53:15;5.15;;;3.30;;
54247;SDS011;40161;39.768;2.722;2022-08-01T04:55:47;6.00;;;3.63;;
54247;SDS011;40161;39.768;2.722;2022-08-01T04:58:13;6.18;;;3.30;;
54247;SDS011;40161;39.768;2.722;2022-08-01T05:00:40;5.78;;;3.38;;
54247;SDS011;40161;39.768;2.722;2022-08-01T05:03:06;5.15;;;3.22;;
54247;SDS011;40161;39.768;2.722;2022-08-01T05:05:32;5.22;;;3.13;;
54247;SDS011;40161;39.768;2.722;2022-08-01T05:07:57;5.40;;;3.22;;
54247;SDS011;40161;39.768;2.722;2022-08-01T05:10:23;6.88;;;3.55;;
54247;SDS011;40161;39.768;2.722;2022-08-01T05:12:48;6.15;;;3.40;;
54247;SDS011;40161;39.768;2.722;2022-08-01T05:15:14;6.28;;;3.47;;
54247;SDS011;40161;39.768;2.722;2022-08-01T05:17:39;7.85;;;3.80;;
54247;SDS011;40161;39.768;2.722;2022-08-01T05:23:28;5.55;;;3.25;;
54247;SDS011;40161;39.768;2.722;2022-08-01T05:25:54;5.93;;;3.38;;
54247;SDS011;40161;39.768;2.722;2022-08-01T05:28:19;7.55;;;3.50;;
54247;SDS011;40161;39.768;2.722;2022-08-01T05:30:45;5.07;;;3.30;;
54247;SDS011;40161;39.768;2.722;2022-08-01T05:36:32;7.95;;;4.20;;
54247;SDS011;40161;39.768;2.722;2022-08-01T05:38:58;8.23;;;4.05;;
54247;SDS011;40161;39.768;2.722;2022-08-01T05:41:23;9.18;;;4.75;;
54247;SDS011;40161;39.768;2.722;2022-08-01T05:43:49;8.52;;;4.38;;
54247;SDS011;40161;39.768;2.722;2022-08-01T05:46:14;11.65;;;4.80;;
54247;SDS011;40161;39.768;2.722;2022-08-01T05:48:40;8.13;;;3.75;;
54247;SDS011;40161;39.768;2.722;2022-08-01T05:51:05;6.93;;;3.88;;
54247;SDS011;40161;39.768;2.722;2022-08-01T05:53:31;6.78;;;4.22;;
54247;SDS011;40161;39.768;2.722;2022-08-01T05:55:59;7.25;;;3.92;;
54247;SDS011;40161;39.768;2.722;2022-08-01T05:58:25;8.55;;;4.00;;
54247;SDS011;40161;39.768;2.722;2022-08-01T06:04:12;9.70;;;4.47;;
54247;SDS011;40161;39.768;2.722;2022-08-01T06:06:38;8.55;;;4.25;;
54247;SDS011;40161;39.768;2.722;2022-08-01T06:09:03;6.13;;;3.72;;
54247;SDS011;40161;39.768;2.722;2022-08-01T06:11:29;7.03;;;3.95;;
54247;SDS011;40161;39.768;2.722;2022-08-01T06:13:54;6.80;;;4.55;;
54247;SDS011;40161;39.768;2.722;2022-08-01T06:16:20;8.85;;;5.35;;
54247;SDS011;40161;39.768;2.722;2022-08-01T06:18:45;11.13;;;6.05;;
54247;SDS011;40161;39.768;2.722;2022-08-01T06:21:11;9.70;;;5.20;;
54247;SDS011;40161;39.768;2.722;2022-08-01T06:23:36;9.57;;;5.15;;
54247;SDS011;40161;39.768;2.722;2022-08-01T06:26:02;27.83;;;6.55;;
54247;SDS011;40161;39.768;2.722;2022-08-01T06:28:28;17.45;;;5.55;;
54247;SDS011;40161;39.768;2.722;2022-08-01T06:30:54;8.48;;;4.28;;
54247;SDS011;40161;39.768;2.722;2022-08-01T06:33:19;8.43;;;3.78;;
54247;SDS011;40161;39.768;2.722;2022-08-01T06:35:45;6.80;;;3.45;;
54247;SDS011;40161;39.768;2.722;2022-08-01T06:38:11;7.50;;;3.67;;
54247;SDS011;40161;39.768;2.722;2022-08-01T06:40:36;7.53;;;3.80;;
54247;SDS011;40161;39.768;2.722;2022-08-01T06:43:03;5.63;;;4.00;;
54247;SDS011;40161;39.768;2.722;2022-08-01T06:45:29;6.78;;;4.03;;
54247;SDS011;40161;39.768;2.722;2022-08-01T06:47:54;8.27;;;3.90;;
54247;SDS011;40161;39.768;2.722;2022-08-01T06:50:20;6.65;;;3.75;;
54247;SDS011;40161;39.768;2.722;2022-08-01T06:52:45;7.20;;;3.60;;
54247;SDS011;40161;39.768;2.722;2022-08-01T06:55:11;6.75;;;3.90;;
54247;SDS011;40161;39.768;2.722;2022-08-01T06:57:36;6.32;;;3.70;;
54247;SDS011;40161;39.768;2.722;2022-08-01T07:00:09;5.88;;;3.63;;
54247;SDS011;40161;39.768;2.722;2022-08-01T07:02:36;5.80;;;3.78;;
54247;SDS011;40161;39.768;2.722;2022-08-01T07:05:02;6.60;;;3.83;;
54247;SDS011;40161;39.768;2.722;2022-08-01T07:07:29;6.88;;;3.72;;
54247;SDS011;40161;39.768;2.722;2022-08-01T07:09:55;6.50;;;3.70;;
54247;SDS011;40161;39.768;2.722;2022-08-01T07:12:20;10.77;;;4.38;;
54247;SDS011;40161;39.768;2.722;2022-08-01T07:14:46;8.50;;;4.00;;
54247;SDS011;40161;39.768;2.722;2022-08-01T07:17:12;8.25;;;3.97;;
54247;SDS011;40161;39.768;2.722;2022-08-01T07:19:38;6.40;;;3.83;;
54247;SDS011;40161;39.768;2.722;2022-08-01T07:22:03;6.80;;;3.75;;
54247;SDS011;40161;39.768;2.722;2022-08-01T07:24:29;7.03;;;3.38;;
54247;SDS011;40161;39.768;2.722;2022-08-01T07:26:55;5.22;;;3.25;;
54247;SDS011;40161;39.768;2.722;2022-08-01T07:29:24;6.13;;;3.83;;
54247;SDS011;40161;39.768;2.722;2022-08-01T07:31:51;5.57;;;3.20;;
54247;SDS011;40161;39.768;2.722;2022-08-01T07:34:18;4.95;;;2.97;;
54247;SDS011;40161;39.768;2.722;2022-08-01T07:36:43;5.85;;;3.10;;
54247;SDS011;40161;39.768;2.722;2022-08-01T07:39:09;5.25;;;3.10;;
54247;SDS011;40161;39.768;2.722;2022-08-01T07:41:34;7.40;;;3.17;;
54247;SDS011;40161;39.768;2.722;2022-08-01T07:44:00;6.75;;;3.45;;
54247;SDS011;40161;39.768;2.722;2022-08-01T07:46:25;4.40;;;3.03;;
54247;SDS011;40161;39.768;2.722;2022-08-01T07:48:51;5.32;;;3.17;;
54247;SDS011;40161;39.768;2.722;2022-08-01T07:51:17;7.53;;;3.15;;
54247;SDS011;40161;39.768;2.722;2022-08-01T07:53:42;8.95;;;3.35;;
54247;SDS011;40161;39.768;2.722;2022-08-01T07:56:08;6.88;;;3.53;;
54247;SDS011;40161;39.768;2.722;2022-08-01T07:58:34;6.05;;;3.00;;
54247;SDS011;40161;39.768;2.722;2022-08-01T08:01:00;7.78;;;4.68;;
54247;SDS011;40161;39.768;2.722;2022-08-01T08:03:25;7.18;;;3.60;;
54247;SDS011;40161;39.768;2.722;2022-08-01T08:05:51;4.70;;;2.58;;
54247;SDS011;40161;39.768;2.722;2022-08-01T08:08:17;5.40;;;1.98;;
54247;SDS011;40161;39.768;2.722;2022-08-01T08:10:43;6.50;;;2.28;;
54247;SDS011;40161;39.768;2.722;2022-08-01T08:13:09;6.32;;;2.13;;
54247;SDS011;40161;39.768;2.722;2022-08-01T08:15:34;6.28;;;2.50;;
54247;SDS011;40161;39.768;2.722;2022-08-01T08:18:00;4.28;;;2.10;;
54247;SDS011;40161;39.768;2.722;2022-08-01T08:20:25;5.28;;;2.10;;
54247;SDS011;40161;39.768;2.722;2022-08-01T08:22:53;4.07;;;2.15;;
54247;SDS011;40161;39.768;2.722;2022-08-01T08:25:19;5.63;;;2.15;;
54247;SDS011;40161;39.768;2.722;2022-08-01T08:27:45;4.43;;;2.20;;
54247;SDS011;40161;39.768;2.722;2022-08-01T08:30:11;4.70;;;2.15;;
54247;SDS011;40161;39.768;2.722;2022-08-01T08:32:38;6.38;;;2.30;;
54247;SDS011;40161;39.768;2.722;2022-08-01T08:35:04;4.32;;;2.28;;
54247;SDS011;40161;39.768;2.722;2022-08-01T08:37:30;8.93;;;2.30;;
54247;SDS011;40161;39.768;2.722;2022-08-01T08:39:57;3.63;;;2.13;;
54247;SDS011;40161;39.768;2.722;2022-08-01T08:42:22;4.10;;;2.03;;
54247;SDS011;40161;39.768;2.722;2022-08-01T08:44:48;4.10;;;2.10;;
54247;SDS011;40161;39.768;2.722;2022-08-01T08:47:14;4.07;;;2.42;;
54247;SDS011;40161;39.768;2.722;2022-08-01T08:49:42;5.30;;;2.30;;
54247;SDS011;40161;39.768;2.722;2022-08-01T08:52:09;5.18;;;2.80;;
54247;SDS011;40161;39.768;2.722;2022-08-01T08:54:36;4.75;;;2.50;;
54247;SDS011;40161;39.768;2.722;2022-08-01T08:57:03;4.53;;;2.13;;
54247;SDS011;40161;39.768;2.722;2022-08-01T08:59:29;4.45;;;2.13;;
54247;SDS011;40161;39.768;2.722;2022-08-01T09:01:57;6.30;;;2.30;;
54247;SDS011;40161;39.768;2.722;2022-08-01T09:04:23;3.45;;;2.10;;
54247;SDS011;40161;39.768;2.722;2022-08-01T09:06:49;4.88;;;2.10;;
54247;SDS011;40161;39.768;2.722;2022-08-01T09:09:15;4.40;;;2.08;;
54247;SDS011;40161;39.768;2.722;2022-08-01T09:11:41;5.95;;;2.00;;
54247;SDS011;40161;39.768;2.722;2022-08-01T09:14:11;4.05;;;2.17;;
54247;SDS011;40161;39.768;2.722;2022-08-01T09:16:43;5.05;;;2.08;;
54247;SDS011;40161;39.768;2.722;2022-08-01T09:19:14;5.30;;;2.17;;
54247;SDS011;40161;39.768;2.722;2022-08-01T09:22:01;4.68;;;2.13;;
54247;SDS011;40161;39.768;2.722;2022-08-01T09:24:29;4.45;;;2.13;;
54247;SDS011;40161;39.768;2.722;2022-08-01T09:26:55;3.75;;;2.22;;
54247;SDS011;40161;39.768;2.722;2022-08-01T09:29:22;4.47;;;2.08;;
54247;SDS011;40161;39.768;2.722;2022-08-01T09:31:52;7.10;;;2.40;;
54247;SDS011;40161;39.768;2.722;2022-08-01T09:34:26;5.35;;;2.03;;
54247;SDS011;40161;39.768;2.722;2022-08-01T09:36:57;3.72;;;2.05;;
54247;SDS011;40161;39.768;2.722;2022-08-01T09:39:25;3.88;;;2.05;;
54247;SDS011;40161;39.768;2.722;2022-08-01T09:41:52;4.03;;;1.92;;
54247;SDS011;40161;39.768;2.722;2022-08-01T09:44:41;3.38;;;1.88;;
54247;SDS011;40161;39.768;2.722;2022-08-01T09:47:08;4.50;;;1.95;;
54247;SDS011;40161;39.768;2.722;2022-08-01T09:49:36;3.25;;;1.90;;
54247;SDS011;40161;39.768;2.722;2022-08-01T09:52:12;4.68;;;1.95;;
54247;SDS011;40161;39.768;2.722;2022-08-01T09:54:40;5.57;;;2.10;;
54247;SDS011;40161;39.768;2.722;2022-08-01T09:57:09;5.68;;;2.10;;
54247;SDS011;40161;39.768;2.722;2022-08-01T09:59:37;5.28;;;1.75;;
54247;SDS011;40161;39.768;2.722;2022-08-01T10:02:05;5.28;;;2.20;;
54247;SDS011;40161;39.768;2.722;2022-08-01T10:04:31;3.70;;;1.95;;
54247;SDS011;40161;39.768;2.722;2022-08-01T10:07:06;3.42;;;1.70;;
54247;SDS011;40161;39.768;2.722;2022-08-01T10:09:35;2.95;;;1.92;;
54247;SDS011;40161;39.768;2.722;2022-08-01T10:12:03;3.30;;;1.75;;
54247;SDS011;40161;39.768;2.722;2022-08-01T10:14:29;4.13;;;1.85;;
54247;SDS011;40161;39.768;2.722;2022-08-01T10:16:57;3.38;;;1.70;;
54247;SDS011;40161;39.768;2.722;2022-08-01T10:19:25;3.30;;;1.80;;
54247;SDS011;40161;39.768;2.722;2022-08-01T10:21:53;4.35;;;1.67;;
54247;SDS011;40161;39.768;2.722;2022-08-01T10:24:20;4.25;;;2.03;;
54247;SDS011;40161;39.768;2.722;2022-08-01T10:26:47;3.75;;;1.70;;
54247;SDS011;40161;39.768;2.722;2022-08-01T10:29:17;5.20;;;2.38;;
54247;SDS011;40161;39.768;2.722;2022-08-01T10:31:48;3.65;;;1.73;;
54247;SDS011;40161;39.768;2.722;2022-08-01T10:34:15;4.75;;;1.50;;
54247;SDS011;40161;39.768;2.722;2022-08-01T10:36:45;3.83;;;1.70;;
54247;SDS011;40161;39.768;2.722;2022-08-01T10:39:13;4.53;;;1.90;;
54247;SDS011;40161;39.768;2.722;2022-08-01T10:41:39;3.72;;;1.60;;
54247;SDS011;40161;39.768;2.722;2022-08-01T10:44:08;4.75;;;2.13;;
54247;SDS011;40161;39.768;2.722;2022-08-01T10:46:37;3.90;;;1.80;;
54247;SDS011;40161;39.768;2.722;2022-08-01T10:49:07;4.55;;;2.13;;
54247;SDS011;40161;39.768;2.722;2022-08-01T10:51:38;5.05;;;1.90;;
54247;SDS011;40161;39.768;2.722;2022-08-01T10:54:06;3.47;;;1.58;;
54247;SDS011;40161;39.768;2.722;2022-08-01T10:56:43;3.53;;;1.80;;
54247;SDS011;40161;39.768;2.722;2022-08-01T10:59:13;3.78;;;2.15;;
54247;SDS011;40161;39.768;2.722;2022-08-01T11:02:04;3.13;;;1.40;;
54247;SDS011;40161;39.768;2.722;2022-08-01T11:07:16;4.38;;;1.85;;
54247;SDS011;40161;39.768;2.722;2022-08-01T11:09:46;3.40;;;1.70;;
54247;SDS011;40161;39.768;2.722;2022-08-01T11:12:16;5.72;;;1.67;;
54247;SDS011;40161;39.768;2.722;2022-08-01T11:25:24;4.07;;;1.42;;
54247;SDS011;40161;39.768;2.722;2022-08-01T11:30:47;3.23;;;1.47;;
54247;SDS011;40161;39.768;2.722;2022-08-01T11:41:24;3.03;;;1.48;;
54247;SDS011;40161;39.768;2.722;2022-08-01T11:46:45;2.70;;;1.50;;
54247;SDS011;40161;39.768;2.722;2022-08-01T11:54:35;3.40;;;1.60;;
54247;SDS011;40161;39.768;2.722;2022-08-01T11:57:05;3.58;;;1.50;;
54247;SDS011;40161;39.768;2.722;2022-08-01T11:59:52;2.97;;;1.63;;
54247;SDS011;40161;39.768;2.722;2022-08-01T12:02:25;3.38;;;1.70;;
54247;SDS011;40161;39.768;2.722;2022-08-01T12:07:22;3.05;;;1.60;;
54247;SDS011;40161;39.768;2.722;2022-08-01T12:09:56;3.80;;;1.77;;
54247;SDS011;40161;39.768;2.722;2022-08-01T12:12:33;3.58;;;1.60;;
54247;SDS011;40161;39.768;2.722;2022-08-01T12:15:04;3.40;;;1.60;;
54247;SDS011;40161;39.768;2.722;2022-08-01T12:17:32;3.63;;;1.90;;
54247;SDS011;40161;39.768;2.722;2022-08-01T12:20:02;3.08;;;1.60;;
54247;SDS011;40161;39.768;2.722;2022-08-01T12:22:30;4.35;;;1.58;;
54247;SDS011;40161;39.768;2.722;2022-08-01T12:24:56;4.65;;;1.67;;
54247;SDS011;40161;39.768;2.722;2022-08-01T12:27:31;5.47;;;1.90;;
54247;SDS011;40161;39.768;2.722;2022-08-01T12:29:57;4.93;;;1.55;;
54247;SDS011;40161;39.768;2.722;2022-08-01T12:32:25;4.55;;;1.63;;
54247;SDS011;40161;39.768;2.722;2022-08-01T12:34:56;4.05;;;1.92;;
54247;SDS011;40161;39.768;2.722;2022-08-01T12:37:26;3.63;;;1.65;;
54247;SDS011;40161;39.768;2.722;2022-08-01T12:39:51;3.15;;;1.55;;
54247;SDS011;40161;39.768;2.722;2022-08-01T12:42:17;4.65;;;1.70;;
54247;SDS011;40161;39.768;2.722;2022-08-01T12:44:44;3.00;;;1.58;;
54247;SDS011;40161;39.768;2.722;2022-08-01T12:47:14;5.68;;;1.88;;
54247;SDS011;40161;39.768;2.722;2022-08-01T12:49:41;3.17;;;1.48;;
54247;SDS011;40161;39.768;2.722;2022-08-01T12:52:09;5.93;;;1.67;;
54247;SDS011;40161;39.768;2.722;2022-08-01T12:57:27;4.07;;;1.80;;
54247;SDS011;40161;39.768;2.722;2022-08-01T12:59:53;4.13;;;1.50;;
54247;SDS011;40161;39.768;2.722;2022-08-01T13:02:33;3.47;;;1.80;;
54247;SDS011;40161;39.768;2.722;2022-08-01T13:05:00;4.05;;;1.90;;
54247;SDS011;40161;39.768;2.722;2022-08-01T13:10:15;5.53;;;1.70;;
54247;SDS011;40161;39.768;2.722;2022-08-01T13:12:51;3.88;;;1.63;;
54247;SDS011;40161;39.768;2.722;2022-08-01T13:15:26;4.35;;;1.60;;
54247;SDS011;40161;39.768;2.722;2022-08-01T13:17:56;4.00;;;1.70;;
54247;SDS011;40161;39.768;2.722;2022-08-01T13:20:24;5.03;;;1.77;;
54247;SDS011;40161;39.768;2.722;2022-08-01T13:22:51;2.88;;;1.55;;
54247;SDS011;40161;39.768;2.722;2022-08-01T13:25:17;3.97;;;1.67;;
54247;SDS011;40161;39.768;2.722;2022-08-01T13:27:43;3.05;;;1.70;;
54247;SDS011;40161;39.768;2.722;2022-08-01T13:32:42;4.68;;;1.60;;
54247;SDS011;40161;39.768;2.722;2022-08-01T13:35:10;3.92;;;1.70;;
54247;SDS011;40161;39.768;2.722;2022-08-01T13:37:38;5.18;;;1.90;;
54247;SDS011;40161;39.768;2.722;2022-08-01T13:40:06;4.55;;;2.10;;
54247;SDS011;40161;39.768;2.722;2022-08-01T13:42:33;3.22;;;1.80;;
54247;SDS011;40161;39.768;2.722;2022-08-01T13:44:59;5.80;;;1.70;;
54247;SDS011;40161;39.768;2.722;2022-08-01T13:47:24;4.18;;;2.00;;
54247;SDS011;40161;39.768;2.722;2022-08-01T13:49:50;3.67;;;1.95;;
54247;SDS011;40161;39.768;2.722;2022-08-01T13:52:15;4.88;;;1.67;;
54247;SDS011;40161;39.768;2.722;2022-08-01T13:54:41;4.30;;;2.17;;
54247;SDS011;40161;39.768;2.722;2022-08-01T13:57:06;3.40;;;1.80;;
54247;SDS011;40161;39.768;2.722;2022-08-01T13:59:33;3.78;;;1.75;;
54247;SDS011;40161;39.768;2.722;2022-08-01T14:01:58;3.65;;;1.98;;
54247;SDS011;40161;39.768;2.722;2022-08-01T14:04:24;3.80;;;1.83;;
54247;SDS011;40161;39.768;2.722;2022-08-01T14:06:49;5.68;;;2.15;;
54247;SDS011;40161;39.768;2.722;2022-08-01T14:09:15;4.00;;;1.83;;
54247;SDS011;40161;39.768;2.722;2022-08-01T14:11:42;5.03;;;2.08;;
54247;SDS011;40161;39.768;2.722;2022-08-01T14:14:08;3.88;;;1.88;;
54247;SDS011;40161;39.768;2.722;2022-08-01T14:16:34;4.78;;;1.70;;
54247;SDS011;40161;39.768;2.722;2022-08-01T14:18:59;3.85;;;1.70;;
54247;SDS011;40161;39.768;2.722;2022-08-01T14:21:25;4.28;;;1.85;;
54247;SDS011;40161;39.768;2.722;2022-08-01T14:23:50;3.15;;;1.77;;
54247;SDS011;40161;39.768;2.722;2022-08-01T14:26:16;5.53;;;1.80;;
54247;SDS011;40161;39.768;2.722;2022-08-01T14:28:41;4.72;;;1.80;;
54247;SDS011;40161;39.768;2.722;2022-08-01T14:31:07;5.18;;;1.98;;
54247;SDS011;40161;39.768;2.722;2022-08-01T14:33:33;4.03;;;1.88;;
54247;SDS011;40161;39.768;2.722;2022-08-01T14:35:58;3.80;;;1.90;;
54247;SDS011;40161;39.768;2.722;2022-08-01T14:38:24;3.55;;;1.88;;
54247;SDS011;40161;39.768;2.722;2022-08-01T14:40:50;4.47;;;2.00;;
54247;SDS011;40161;39.768;2.722;2022-08-01T14:43:19;3.50;;;1.90;;
54247;SDS011;40161;39.768;2.722;2022-08-01T14:45:45;4.68;;;2.08;;
54247;SDS011;40161;39.768;2.722;2022-08-01T14:48:14;4.32;;;2.03;;
54247;SDS011;40161;39.768;2.722;2022-08-01T14:50:40;4.93;;;1.85;;
54247;SDS011;40161;39.768;2.722;2022-08-01T14:53:06;4.43;;;1.80;;
54247;SDS011;40161;39.768;2.722;2022-08-01T14:55:31;4.45;;;2.10;;
54247;SDS011;40161;39.768;2.722;2022-08-01T14:57:57;4.80;;;1.95;;
54247;SDS011;40161;39.768;2.722;2022-08-01T15:00:22;3.60;;;1.83;;
54247;SDS011;40161;39.768;2.722;2022-08-01T15:02:48;3.92;;;2.05;;
54247;SDS011;40161;39.768;2.722;2022-08-01T15:05:13;3.90;;;2.08;;
54247;SDS011;40161;39.768;2.722;2022-08-01T15:07:39;3.50;;;1.70;;
54247;SDS011;40161;39.768;2.722;2022-08-01T15:10:05;2.95;;;1.52;;
54247;SDS011;40161;39.768;2.722;2022-08-01T15:12:31;2.90;;;1.80;;
54247;SDS011;40161;39.768;2.722;2022-08-01T15:14:57;6.00;;;2.05;;
54247;SDS011;40161;39.768;2.722;2022-08-01T15:17:31;4.43;;;1.80;;
54247;SDS011;40161;39.768;2.722;2022-08-01T15:19:59;3.80;;;1.88;;
54247;SDS011;40161;39.768;2.722;2022-08-01T15:22:26;4.65;;;1.70;;
54247;SDS011;40161;39.768;2.722;2022-08-01T15:24:52;4.03;;;1.88;;
54247;SDS011;40161;39.768;2.722;2022-08-01T15:27:19;5.00;;;1.90;;
54247;SDS011;40161;39.768;2.722;2022-08-01T15:29:46;4.53;;;2.10;;
54247;SDS011;40161;39.768;2.722;2022-08-01T15:32:12;3.90;;;2.22;;
54247;SDS011;40161;39.768;2.722;2022-08-01T15:34:39;3.40;;;1.95;;
54247;SDS011;40161;39.768;2.722;2022-08-01T15:37:05;3.67;;;1.75;;
54247;SDS011;40161;39.768;2.722;2022-08-01T15:39:32;4.65;;;1.70;;
54247;SDS011;40161;39.768;2.722;2022-08-01T15:47:46;4.20;;;1.80;;
54247;SDS011;40161;39.768;2.722;2022-08-01T15:50:12;6.03;;;1.90;;
54247;SDS011;40161;39.768;2.722;2022-08-01T15:52:37;4.13;;;2.10;;
54247;SDS011;40161;39.768;2.722;2022-08-01T15:55:03;4.55;;;1.83;;
54247;SDS011;40161;39.768;2.722;2022-08-01T15:57:29;3.60;;;1.80;;